sensor_id;sensor_type;location;lat;lon;timestamp;temperature;humidity
6654;DHT22;3363;50.942;7.034;2023-10-08T00:02:09;18.40;75.90
6654;DHT22;3363;50.942;7.034;2023-10-08T00:04:37;18.40;75.10
6654;DHT22;3363;50.942;7.034;2023-10-08T00:07:04;18.40;75.80
6654;DHT22;3363;50.942;7.034;2023-10-08T00:09:33;18.40;76.30
6654;DHT22;3363;50.942;7.034;2023-10-08T00:12:02;18.40;74.90
6654;DHT22;3363;50.942;7.034;2023-10-08T00:14:29;18.40;75.40
6654;DHT22;3363;50.942;7.034;2023-10-08T00:16:57;18.30;75.40
6654;DHT22;3363;50.942;7.034;2023-10-08T00:19:25;18.30;73.80
6654;DHT22;3363;50.942;7.034;2023-10-08T00:22:00;18.30;74.40
6654;DHT22;3363;50.942;7.034;2023-10-08T00:24:32;18.30;74.50
6654;DHT22;3363;50.942;7.034;2023-10-08T00:26:58;18.20;73.60
6654;DHT22;3363;50.942;7.034;2023-10-08T00:29:25;18.20;74.10
6654;DHT22;3363;50.942;7.034;2023-10-08T00:31:56;18.20;73.70
6654;DHT22;3363;50.942;7.034;2023-10-08T00:34:23;18.20;76.80
6654;DHT22;3363;50.942;7.034;2023-10-08T00:36:50;18.20;76.50
6654;DHT22;3363;50.942;7.034;2023-10-08T00:39:18;18.20;75.40
6654;DHT22;3363;50.942;7.034;2023-10-08T00:41:49;18.20;74.80
6654;DHT22;3363;50.942;7.034;2023-10-08T00:44:16;18.20;75.20
6654;DHT22;3363;50.942;7.034;2023-10-08T00:46:48;18.20;76.00
6654;DHT22;3363;50.942;7.034;2023-10-08T00:49:16;18.20;74.80
6654;DHT22;3363;50.942;7.034;2023-10-08T00:52:00;18.20;75.60
6654;DHT22;3363;50.942;7.034;2023-10-08T00:54:52;18.10;75.10
6654;DHT22;3363;50.942;7.034;2023-10-08T00:57:32;18.10;75.20
6654;DHT22;3363;50.942;7.034;2023-10-08T01:00:01;18.20;74.20
6654;DHT22;3363;50.942;7.034;2023-10-08T01:02:30;18.20;75.90
6654;DHT22;3363;50.942;7.034;2023-10-08T01:05:09;18.20;75.80
6654;DHT22;3363;50.942;7.034;2023-10-08T01:07:38;18.20;74.30
6654;DHT22;3363;50.942;7.034;2023-10-08T01:10:09;18.20;74.30
6654;DHT22;3363;50.942;7.034;2023-10-08T01:12:39;18.10;74.00
6654;DHT22;3363;50.942;7.034;2023-10-08T01:15:19;18.10;75.00
6654;DHT22;3363;50.942;7.034;2023-10-08T01:17:54;18.10;74.50
6654;DHT22;3363;50.942;7.034;2023-10-08T01:20:25;18.10;75.90
6654;DHT22;3363;50.942;7.034;2023-10-08T01:23:01;18.10;75.30
6654;DHT22;3363;50.942;7.034;2023-10-08T01:25:30;18.10;73.80
6654;DHT22;3363;50.942;7.034;2023-10-08T01:27:57;18.00;73.80
6654;DHT22;3363;50.942;7.034;2023-10-08T01:30:26;18.00;75.30
6654;DHT22;3363;50.942;7.034;2023-10-08T01:32:59;18.00;76.30
6654;DHT22;3363;50.942;7.034;2023-10-08T01:35:28;18.00;76.90
6654;DHT22;3363;50.942;7.034;2023-10-08T01:37:57;18.10;76.00
6654;DHT22;3363;50.942;7.034;2023-10-08T01:40:26;18.10;74.90
6654;DHT22;3363;50.942;7.034;2023-10-08T01:42:54;18.00;75.20
6654;DHT22;3363;50.942;7.034;2023-10-08T01:45:22;18.00;75.40
6654;DHT22;3363;50.942;7.034;2023-10-08T01:47:50;18.00;77.30
6654;DHT22;3363;50.942;7.034;2023-10-08T01:50:20;18.00;74.40
6654;DHT22;3363;50.942;7.034;2023-10-08T01:52:47;17.90;73.50
6654;DHT22;3363;50.942;7.034;2023-10-08T01:55:14;17.90;76.20
6654;DHT22;3363;50.942;7.034;2023-10-08T01:57:44;17.90;74.70
6654;DHT22;3363;50.942;7.034;2023-10-08T02:00:12;17.80;76.00
6654;DHT22;3363;50.942;7.034;2023-10-08T02:02:39;17.80;73.40
6654;DHT22;3363;50.942;7.034;2023-10-08T02:05:07;17.80;74.00
6654;DHT22;3363;50.942;7.034;2023-10-08T02:07:34;17.80;76.90
6654;DHT22;3363;50.942;7.034;2023-10-08T02:10:01;17.90;77.80
6654;DHT22;3363;50.942;7.034;2023-10-08T02:12:29;17.90;78.40
6654;DHT22;3363;50.942;7.034;2023-10-08T02:14:57;17.90;77.40
6654;DHT22;3363;50.942;7.034;2023-10-08T02:17:24;17.90;75.90
6654;DHT22;3363;50.942;7.034;2023-10-08T02:19:50;17.80;78.90
6654;DHT22;3363;50.942;7.034;2023-10-08T02:22:17;17.80;79.20
6654;DHT22;3363;50.942;7.034;2023-10-08T02:24:45;17.80;79.70
6654;DHT22;3363;50.942;7.034;2023-10-08T02:27:11;17.80;80.00
6654;DHT22;3363;50.942;7.034;2023-10-08T02:29:40;17.80;80.50
6654;DHT22;3363;50.942;7.034;2023-10-08T02:32:08;17.80;80.40
6654;DHT22;3363;50.942;7.034;2023-10-08T02:34:35;17.80;80.70
6654;DHT22;3363;50.942;7.034;2023-10-08T02:37:01;17.80;80.70
6654;DHT22;3363;50.942;7.034;2023-10-08T02:39:30;17.80;80.50
6654;DHT22;3363;50.942;7.034;2023-10-08T02:41:58;17.80;80.70
6654;DHT22;3363;50.942;7.034;2023-10-08T02:44:25;17.90;80.90
6654;DHT22;3363;50.942;7.034;2023-10-08T02:46:52;17.80;81.00
6654;DHT22;3363;50.942;7.034;2023-10-08T02:49:21;17.80;79.50
6654;DHT22;3363;50.942;7.034;2023-10-08T02:51:50;17.80;81.50
6654;DHT22;3363;50.942;7.034;2023-10-08T02:54:17;17.70;81.40
6654;DHT22;3363;50.942;7.034;2023-10-08T02:56:44;17.80;81.80
6654;DHT22;3363;50.942;7.034;2023-10-08T02:59:11;17.80;81.80
6654;DHT22;3363;50.942;7.034;2023-10-08T03:01:39;17.80;81.50
6654;DHT22;3363;50.942;7.034;2023-10-08T03:04:06;17.80;81.90
6654;DHT22;3363;50.942;7.034;2023-10-08T03:06:42;17.80;82.00
6654;DHT22;3363;50.942;7.034;2023-10-08T03:09:08;17.80;82.20
6654;DHT22;3363;50.942;7.034;2023-10-08T03:11:36;17.80;82.20
6654;DHT22;3363;50.942;7.034;2023-10-08T03:14:02;17.80;82.10
6654;DHT22;3363;50.942;7.034;2023-10-08T03:16:30;17.70;82.30
6654;DHT22;3363;50.942;7.034;2023-10-08T03:19:00;17.70;82.80
6654;DHT22;3363;50.942;7.034;2023-10-08T03:21:26;17.70;82.70
6654;DHT22;3363;50.942;7.034;2023-10-08T03:24:08;17.70;82.80
6654;DHT22;3363;50.942;7.034;2023-10-08T03:26:54;17.70;82.80
6654;DHT22;3363;50.942;7.034;2023-10-08T03:29:31;17.70;82.90
6654;DHT22;3363;50.942;7.034;2023-10-08T03:31:58;17.70;83.00
6654;DHT22;3363;50.942;7.034;2023-10-08T03:34:31;17.70;83.10
6654;DHT22;3363;50.942;7.034;2023-10-08T03:36:59;17.70;83.20
6654;DHT22;3363;50.942;7.034;2023-10-08T03:39:32;17.70;83.30
6654;DHT22;3363;50.942;7.034;2023-10-08T03:42:19;17.60;83.60
6654;DHT22;3363;50.942;7.034;2023-10-08T03:44:46;17.70;83.90
6654;DHT22;3363;50.942;7.034;2023-10-08T03:47:16;17.60;83.80
6654;DHT22;3363;50.942;7.034;2023-10-08T03:49:44;17.60;83.90
6654;DHT22;3363;50.942;7.034;2023-10-08T03:52:11;17.60;84.30
6654;DHT22;3363;50.942;7.034;2023-10-08T03:54:40;17.60;84.40
6654;DHT22;3363;50.942;7.034;2023-10-08T03:57:13;17.60;84.60
6654;DHT22;3363;50.942;7.034;2023-10-08T03:59:44;17.60;84.70
6654;DHT22;3363;50.942;7.034;2023-10-08T04:02:13;17.60;84.90
6654;DHT22;3363;50.942;7.034;2023-10-08T04:04:47;17.60;85.00
6654;DHT22;3363;50.942;7.034;2023-10-08T04:07:18;17.60;85.20
6654;DHT22;3363;50.942;7.034;2023-10-08T04:09:55;17.60;85.20
6654;DHT22;3363;50.942;7.034;2023-10-08T04:12:51;17.60;85.20
6654;DHT22;3363;50.942;7.034;2023-10-08T04:15:19;17.50;85.60
6654;DHT22;3363;50.942;7.034;2023-10-08T04:17:46;17.50;85.90
6654;DHT22;3363;50.942;7.034;2023-10-08T04:20:16;17.50;86.20
6654;DHT22;3363;50.942;7.034;2023-10-08T04:22:58;17.50;86.00
6654;DHT22;3363;50.942;7.034;2023-10-08T04:25:27;17.50;86.60
6654;DHT22;3363;50.942;7.034;2023-10-08T04:27:54;17.50;86.50
6654;DHT22;3363;50.942;7.034;2023-10-08T04:30:24;17.50;86.30
6654;DHT22;3363;50.942;7.034;2023-10-08T04:32:57;17.50;86.40
6654;DHT22;3363;50.942;7.034;2023-10-08T04:35:24;17.50;86.50
6654;DHT22;3363;50.942;7.034;2023-10-08T04:37:52;17.30;87.10
6654;DHT22;3363;50.942;7.034;2023-10-08T04:40:20;17.30;88.90
6654;DHT22;3363;50.942;7.034;2023-10-08T04:42:50;17.40;88.80
6654;DHT22;3363;50.942;7.034;2023-10-08T04:45:19;17.30;88.30
6654;DHT22;3363;50.942;7.034;2023-10-08T04:47:51;17.30;89.40
6654;DHT22;3363;50.942;7.034;2023-10-08T04:50:19;17.40;89.10
6654;DHT22;3363;50.942;7.034;2023-10-08T04:52:46;17.30;88.90
6654;DHT22;3363;50.942;7.034;2023-10-08T04:55:23;17.30;89.30
6654;DHT22;3363;50.942;7.034;2023-10-08T04:57:55;17.40;89.30
6654;DHT22;3363;50.942;7.034;2023-10-08T05:00:22;17.30;89.30
6654;DHT22;3363;50.942;7.034;2023-10-08T05:03:06;17.40;89.40
6654;DHT22;3363;50.942;7.034;2023-10-08T05:05:39;17.40;89.40
6654;DHT22;3363;50.942;7.034;2023-10-08T05:08:20;17.40;89.30
6654;DHT22;3363;50.942;7.034;2023-10-08T05:10:54;17.30;89.40
6654;DHT22;3363;50.942;7.034;2023-10-08T05:13:41;17.30;89.40
6654;DHT22;3363;50.942;7.034;2023-10-08T05:16:26;17.30;89.20
6654;DHT22;3363;50.942;7.034;2023-10-08T05:19:08;17.10;90.70
6654;DHT22;3363;50.942;7.034;2023-10-08T05:22:02;17.20;90.70
6654;DHT22;3363;50.942;7.034;2023-10-08T05:24:44;17.20;90.60
6654;DHT22;3363;50.942;7.034;2023-10-08T05:27:16;17.20;90.50
6654;DHT22;3363;50.942;7.034;2023-10-08T05:30:23;17.20;90.40
6654;DHT22;3363;50.942;7.034;2023-10-08T05:33:03;17.20;90.50
6654;DHT22;3363;50.942;7.034;2023-10-08T05:35:38;17.20;90.70
6654;DHT22;3363;50.942;7.034;2023-10-08T05:38:20;17.20;90.40
6654;DHT22;3363;50.942;7.034;2023-10-08T05:41:03;17.20;90.50
6654;DHT22;3363;50.942;7.034;2023-10-08T05:43:53;17.20;90.50
6654;DHT22;3363;50.942;7.034;2023-10-08T05:46:41;17.20;90.40
6654;DHT22;3363;50.942;7.034;2023-10-08T05:49:16;17.20;90.50
6654;DHT22;3363;50.942;7.034;2023-10-08T05:52:03;17.20;90.30
6654;DHT22;3363;50.942;7.034;2023-10-08T05:54:47;17.10;90.50
6654;DHT22;3363;50.942;7.034;2023-10-08T05:57:39;17.00;90.70
6654;DHT22;3363;50.942;7.034;2023-10-08T06:00:06;17.10;91.20
6654;DHT22;3363;50.942;7.034;2023-10-08T06:02:51;17.10;91.10
6654;DHT22;3363;50.942;7.034;2023-10-08T06:05:35;17.10;90.90
6654;DHT22;3363;50.942;7.034;2023-10-08T06:08:08;17.10;90.80
6654;DHT22;3363;50.942;7.034;2023-10-08T06:10:38;17.10;90.50
6654;DHT22;3363;50.942;7.034;2023-10-08T06:13:10;17.10;91.00
6654;DHT22;3363;50.942;7.034;2023-10-08T06:15:39;17.00;89.50
6654;DHT22;3363;50.942;7.034;2023-10-08T06:18:15;17.00;91.30
6654;DHT22;3363;50.942;7.034;2023-10-08T06:20:41;17.00;91.20
6654;DHT22;3363;50.942;7.034;2023-10-08T06:23:09;17.10;91.10
6654;DHT22;3363;50.942;7.034;2023-10-08T06:25:38;17.10;90.90
6654;DHT22;3363;50.942;7.034;2023-10-08T06:28:14;17.10;90.70
6654;DHT22;3363;50.942;7.034;2023-10-08T06:30:44;17.20;90.60
6654;DHT22;3363;50.942;7.034;2023-10-08T06:33:11;17.20;90.40
6654;DHT22;3363;50.942;7.034;2023-10-08T06:35:40;17.20;90.30
6654;DHT22;3363;50.942;7.034;2023-10-08T06:38:10;17.20;90.30
6654;DHT22;3363;50.942;7.034;2023-10-08T06:40:36;17.20;90.30
6654;DHT22;3363;50.942;7.034;2023-10-08T06:43:07;17.20;90.30
6654;DHT22;3363;50.942;7.034;2023-10-08T06:45:47;17.10;90.40
6654;DHT22;3363;50.942;7.034;2023-10-08T06:48:17;17.20;90.40
6654;DHT22;3363;50.942;7.034;2023-10-08T06:50:47;17.20;90.40
6654;DHT22;3363;50.942;7.034;2023-10-08T06:53:14;17.20;90.40
6654;DHT22;3363;50.942;7.034;2023-10-08T06:55:43;17.20;90.40
6654;DHT22;3363;50.942;7.034;2023-10-08T06:58:10;17.10;90.80
6654;DHT22;3363;50.942;7.034;2023-10-08T07:00:37;17.10;91.70
6654;DHT22;3363;50.942;7.034;2023-10-08T07:03:05;16.90;93.60
6654;DHT22;3363;50.942;7.034;2023-10-08T07:05:33;16.80;93.20
6654;DHT22;3363;50.942;7.034;2023-10-08T07:08:03;16.80;93.70
6654;DHT22;3363;50.942;7.034;2023-10-08T07:10:32;16.80;93.10
6654;DHT22;3363;50.942;7.034;2023-10-08T07:12:59;16.90;93.40
6654;DHT22;3363;50.942;7.034;2023-10-08T07:15:28;17.00;91.20
6654;DHT22;3363;50.942;7.034;2023-10-08T07:17:55;16.90;92.50
6654;DHT22;3363;50.942;7.034;2023-10-08T07:20:22;17.00;92.90
6654;DHT22;3363;50.942;7.034;2023-10-08T07:22:49;17.10;92.50
6654;DHT22;3363;50.942;7.034;2023-10-08T07:25:21;17.10;92.00
6654;DHT22;3363;50.942;7.034;2023-10-08T07:27:47;17.20;91.70
6654;DHT22;3363;50.942;7.034;2023-10-08T07:30:14;17.10;92.70
6654;DHT22;3363;50.942;7.034;2023-10-08T07:32:52;17.20;93.20
6654;DHT22;3363;50.942;7.034;2023-10-08T07:35:19;17.10;92.70
6654;DHT22;3363;50.942;7.034;2023-10-08T07:37:51;17.10;94.70
6654;DHT22;3363;50.942;7.034;2023-10-08T07:40:20;17.10;96.20
6654;DHT22;3363;50.942;7.034;2023-10-08T07:42:53;17.20;93.80
6654;DHT22;3363;50.942;7.034;2023-10-08T07:45:20;17.10;95.30
6654;DHT22;3363;50.942;7.034;2023-10-08T07:47:47;17.00;94.80
6654;DHT22;3363;50.942;7.034;2023-10-08T07:50:14;17.00;95.00
6654;DHT22;3363;50.942;7.034;2023-10-08T07:52:41;17.00;95.00
6654;DHT22;3363;50.942;7.034;2023-10-08T07:55:09;17.10;94.50
6654;DHT22;3363;50.942;7.034;2023-10-08T07:57:44;17.10;96.30
6654;DHT22;3363;50.942;7.034;2023-10-08T08:00:11;17.10;95.10
6654;DHT22;3363;50.942;7.034;2023-10-08T08:02:48;17.20;95.80
6654;DHT22;3363;50.942;7.034;2023-10-08T08:05:15;17.10;94.60
6654;DHT22;3363;50.942;7.034;2023-10-08T08:07:42;17.20;96.20
6654;DHT22;3363;50.942;7.034;2023-10-08T08:10:11;17.20;91.10
6654;DHT22;3363;50.942;7.034;2023-10-08T08:12:39;17.20;93.40
6654;DHT22;3363;50.942;7.034;2023-10-08T08:15:07;17.20;95.10
6654;DHT22;3363;50.942;7.034;2023-10-08T08:17:41;17.20;94.90
6654;DHT22;3363;50.942;7.034;2023-10-08T08:20:08;17.20;93.80
6654;DHT22;3363;50.942;7.034;2023-10-08T08:22:43;17.10;92.40
6654;DHT22;3363;50.942;7.034;2023-10-08T08:25:15;17.20;93.30
6654;DHT22;3363;50.942;7.034;2023-10-08T08:27:42;17.20;93.40
6654;DHT22;3363;50.942;7.034;2023-10-08T08:30:13;17.20;93.20
6654;DHT22;3363;50.942;7.034;2023-10-08T08:32:41;17.20;93.00
6654;DHT22;3363;50.942;7.034;2023-10-08T08:35:09;17.10;93.20
6654;DHT22;3363;50.942;7.034;2023-10-08T08:37:36;17.20;92.20
6654;DHT22;3363;50.942;7.034;2023-10-08T08:40:03;17.20;92.30
6654;DHT22;3363;50.942;7.034;2023-10-08T08:42:33;17.20;92.70
6654;DHT22;3363;50.942;7.034;2023-10-08T08:45:02;17.20;92.80
6654;DHT22;3363;50.942;7.034;2023-10-08T08:47:35;17.20;92.40
6654;DHT22;3363;50.942;7.034;2023-10-08T08:50:02;17.20;92.10
6654;DHT22;3363;50.942;7.034;2023-10-08T08:52:34;17.20;92.30
6654;DHT22;3363;50.942;7.034;2023-10-08T08:55:02;17.20;92.50
6654;DHT22;3363;50.942;7.034;2023-10-08T08:57:31;17.20;92.00
6654;DHT22;3363;50.942;7.034;2023-10-08T08:59:58;17.20;92.20
6654;DHT22;3363;50.942;7.034;2023-10-08T09:02:26;17.20;91.90
6654;DHT22;3363;50.942;7.034;2023-10-08T09:04:54;17.20;91.80
6654;DHT22;3363;50.942;7.034;2023-10-08T09:07:21;17.30;91.90
6654;DHT22;3363;50.942;7.034;2023-10-08T09:09:48;17.40;91.50
6654;DHT22;3363;50.942;7.034;2023-10-08T09:12:16;17.40;90.80
6654;DHT22;3363;50.942;7.034;2023-10-08T09:14:43;17.50;91.00
6654;DHT22;3363;50.942;7.034;2023-10-08T09:17:10;17.50;89.30
6654;DHT22;3363;50.942;7.034;2023-10-08T09:19:38;17.50;90.40
6654;DHT22;3363;50.942;7.034;2023-10-08T09:22:07;17.50;91.20
6654;DHT22;3363;50.942;7.034;2023-10-08T09:24:38;17.60;90.50
6654;DHT22;3363;50.942;7.034;2023-10-08T09:27:05;17.60;90.10
6654;DHT22;3363;50.942;7.034;2023-10-08T09:29:32;17.60;90.70
6654;DHT22;3363;50.942;7.034;2023-10-08T09:32:05;17.60;90.50
6654;DHT22;3363;50.942;7.034;2023-10-08T09:34:32;17.60;89.20
6654;DHT22;3363;50.942;7.034;2023-10-08T09:37:00;17.60;89.50
6654;DHT22;3363;50.942;7.034;2023-10-08T09:39:30;17.60;91.40
6654;DHT22;3363;50.942;7.034;2023-10-08T09:41:59;17.60;91.90
6654;DHT22;3363;50.942;7.034;2023-10-08T09:44:28;17.60;94.40
6654;DHT22;3363;50.942;7.034;2023-10-08T09:46:57;17.70;91.80
6654;DHT22;3363;50.942;7.034;2023-10-08T09:49:29;17.70;96.40
6654;DHT22;3363;50.942;7.034;2023-10-08T09:51:59;17.70;92.40
6654;DHT22;3363;50.942;7.034;2023-10-08T09:54:28;17.80;91.50
6654;DHT22;3363;50.942;7.034;2023-10-08T09:56:58;17.80;96.50
6654;DHT22;3363;50.942;7.034;2023-10-08T09:59:25;17.80;92.70
6654;DHT22;3363;50.942;7.034;2023-10-08T10:01:53;17.70;93.80
6654;DHT22;3363;50.942;7.034;2023-10-08T10:04:25;17.80;93.70
6654;DHT22;3363;50.942;7.034;2023-10-08T10:06:54;17.80;94.30
6654;DHT22;3363;50.942;7.034;2023-10-08T10:09:24;17.80;93.70
6654;DHT22;3363;50.942;7.034;2023-10-08T10:11:51;17.80;92.90
6654;DHT22;3363;50.942;7.034;2023-10-08T10:14:20;17.80;94.50
6654;DHT22;3363;50.942;7.034;2023-10-08T10:16:48;17.80;93.20
6654;DHT22;3363;50.942;7.034;2023-10-08T10:19:19;17.80;92.80
6654;DHT22;3363;50.942;7.034;2023-10-08T10:21:46;17.90;91.90
6654;DHT22;3363;50.942;7.034;2023-10-08T10:24:27;17.90;98.10
6654;DHT22;3363;50.942;7.034;2023-10-08T10:27:09;18.00;93.10
6654;DHT22;3363;50.942;7.034;2023-10-08T10:29:37;18.00;93.00
6654;DHT22;3363;50.942;7.034;2023-10-08T10:32:05;18.10;90.80
6654;DHT22;3363;50.942;7.034;2023-10-08T10:34:31;18.20;92.50
6654;DHT22;3363;50.942;7.034;2023-10-08T10:37:00;18.20;91.30
6654;DHT22;3363;50.942;7.034;2023-10-08T10:39:34;18.20;90.70
6654;DHT22;3363;50.942;7.034;2023-10-08T10:42:05;18.20;93.10
6654;DHT22;3363;50.942;7.034;2023-10-08T10:44:47;18.30;93.60
6654;DHT22;3363;50.942;7.034;2023-10-08T10:47:16;18.30;92.90
6654;DHT22;3363;50.942;7.034;2023-10-08T10:50:08;18.30;91.50
6654;DHT22;3363;50.942;7.034;2023-10-08T10:52:51;18.30;92.10
6654;DHT22;3363;50.942;7.034;2023-10-08T10:55:18;18.30;90.20
6654;DHT22;3363;50.942;7.034;2023-10-08T10:57:47;18.30;91.20
6654;DHT22;3363;50.942;7.034;2023-10-08T11:00:22;18.30;91.20
6654;DHT22;3363;50.942;7.034;2023-10-08T11:03:08;18.30;90.10
6654;DHT22;3363;50.942;7.034;2023-10-08T11:05:43;18.40;89.80
6654;DHT22;3363;50.942;7.034;2023-10-08T11:08:14;18.40;89.80
6654;DHT22;3363;50.942;7.034;2023-10-08T11:10:44;18.50;91.60
6654;DHT22;3363;50.942;7.034;2023-10-08T11:13:15;18.40;88.10
6654;DHT22;3363;50.942;7.034;2023-10-08T11:15:43;18.50;87.30
6654;DHT22;3363;50.942;7.034;2023-10-08T11:18:14;18.60;88.70
6654;DHT22;3363;50.942;7.034;2023-10-08T11:20:41;18.60;91.60
6654;DHT22;3363;50.942;7.034;2023-10-08T11:23:09;18.60;91.70
6654;DHT22;3363;50.942;7.034;2023-10-08T11:25:54;18.60;89.40
6654;DHT22;3363;50.942;7.034;2023-10-08T11:28:20;18.70;91.00
6654;DHT22;3363;50.942;7.034;2023-10-08T11:30:51;18.70;92.40
6654;DHT22;3363;50.942;7.034;2023-10-08T11:33:18;18.80;88.80
6654;DHT22;3363;50.942;7.034;2023-10-08T11:35:55;18.90;88.70
6654;DHT22;3363;50.942;7.034;2023-10-08T11:38:24;19.00;87.40
6654;DHT22;3363;50.942;7.034;2023-10-08T11:40:53;19.00;88.00
6654;DHT22;3363;50.942;7.034;2023-10-08T11:43:21;19.00;86.60
6654;DHT22;3363;50.942;7.034;2023-10-08T11:45:48;19.10;90.40
6654;DHT22;3363;50.942;7.034;2023-10-08T11:48:17;19.00;91.70
6654;DHT22;3363;50.942;7.034;2023-10-08T11:50:51;19.10;94.60
6654;DHT22;3363;50.942;7.034;2023-10-08T11:53:17;19.10;88.30
6654;DHT22;3363;50.942;7.034;2023-10-08T11:55:45;19.20;90.20
6654;DHT22;3363;50.942;7.034;2023-10-08T11:58:13;19.20;88.70
6654;DHT22;3363;50.942;7.034;2023-10-08T12:00:43;19.30;88.70
6654;DHT22;3363;50.942;7.034;2023-10-08T12:03:10;19.30;84.60
6654;DHT22;3363;50.942;7.034;2023-10-08T12:05:39;19.20;85.90
6654;DHT22;3363;50.942;7.034;2023-10-08T12:08:12;19.20;87.70
6654;DHT22;3363;50.942;7.034;2023-10-08T12:10:39;19.20;90.80
6654;DHT22;3363;50.942;7.034;2023-10-08T12:13:06;19.20;88.60
6654;DHT22;3363;50.942;7.034;2023-10-08T12:15:35;19.20;86.30
6654;DHT22;3363;50.942;7.034;2023-10-08T12:18:04;19.30;91.00
6654;DHT22;3363;50.942;7.034;2023-10-08T12:20:40;19.20;89.70
6654;DHT22;3363;50.942;7.034;2023-10-08T12:23:09;19.20;89.50
6654;DHT22;3363;50.942;7.034;2023-10-08T12:25:37;19.20;90.20
6654;DHT22;3363;50.942;7.034;2023-10-08T12:28:05;19.20;93.90
6654;DHT22;3363;50.942;7.034;2023-10-08T12:30:32;19.20;91.30
6654;DHT22;3363;50.942;7.034;2023-10-08T12:33:06;19.20;92.10
6654;DHT22;3363;50.942;7.034;2023-10-08T12:35:39;19.20;91.50
6654;DHT22;3363;50.942;7.034;2023-10-08T12:38:06;19.20;91.80
6654;DHT22;3363;50.942;7.034;2023-10-08T12:40:34;19.10;94.40
6654;DHT22;3363;50.942;7.034;2023-10-08T12:43:13;19.10;94.30
6654;DHT22;3363;50.942;7.034;2023-10-08T12:45:41;19.10;94.90
6654;DHT22;3363;50.942;7.034;2023-10-08T12:48:10;19.10;95.20
6654;DHT22;3363;50.942;7.034;2023-10-08T12:50:40;19.10;95.50
6654;DHT22;3363;50.942;7.034;2023-10-08T12:53:10;19.10;94.00
6654;DHT22;3363;50.942;7.034;2023-10-08T12:55:37;19.10;96.50
6654;DHT22;3363;50.942;7.034;2023-10-08T12:58:05;19.10;96.40
6654;DHT22;3363;50.942;7.034;2023-10-08T13:00:35;19.10;95.40
6654;DHT22;3363;50.942;7.034;2023-10-08T13:03:04;19.10;94.30
6654;DHT22;3363;50.942;7.034;2023-10-08T13:05:37;19.10;94.80
6654;DHT22;3363;50.942;7.034;2023-10-08T13:08:05;19.10;95.20
6654;DHT22;3363;50.942;7.034;2023-10-08T13:10:35;19.10;94.70
6654;DHT22;3363;50.942;7.034;2023-10-08T13:13:06;19.10;95.20
6654;DHT22;3363;50.942;7.034;2023-10-08T13:15:32;19.10;95.60
6654;DHT22;3363;50.942;7.034;2023-10-08T13:18:00;19.00;95.60
6654;DHT22;3363;50.942;7.034;2023-10-08T13:20:28;19.00;99.90
6654;DHT22;3363;50.942;7.034;2023-10-08T13:22:58;19.00;97.80
6654;DHT22;3363;50.942;7.034;2023-10-08T13:25:26;19.00;99.90
6654;DHT22;3363;50.942;7.034;2023-10-08T13:27:53;19.00;98.10
6654;DHT22;3363;50.942;7.034;2023-10-08T13:30:20;19.10;99.90
6654;DHT22;3363;50.942;7.034;2023-10-08T13:32:48;19.10;99.90
6654;DHT22;3363;50.942;7.034;2023-10-08T13:35:17;19.20;99.30
6654;DHT22;3363;50.942;7.034;2023-10-08T13:37:43;19.20;99.00
6654;DHT22;3363;50.942;7.034;2023-10-08T13:40:11;19.30;95.30
6654;DHT22;3363;50.942;7.034;2023-10-08T13:42:42;19.30;94.90
6654;DHT22;3363;50.942;7.034;2023-10-08T13:45:09;19.30;95.40
6654;DHT22;3363;50.942;7.034;2023-10-08T13:47:41;19.30;92.40
6654;DHT22;3363;50.942;7.034;2023-10-08T13:50:08;19.30;92.60
6654;DHT22;3363;50.942;7.034;2023-10-08T13:52:38;19.30;93.20
6654;DHT22;3363;50.942;7.034;2023-10-08T13:55:05;19.30;92.40
6654;DHT22;3363;50.942;7.034;2023-10-08T13:57:39;19.40;93.70
6654;DHT22;3363;50.942;7.034;2023-10-08T14:00:10;19.30;95.90
6654;DHT22;3363;50.942;7.034;2023-10-08T14:02:41;19.30;94.20
6654;DHT22;3363;50.942;7.034;2023-10-08T14:05:08;19.30;97.50
6654;DHT22;3363;50.942;7.034;2023-10-08T14:07:34;19.30;98.90
6654;DHT22;3363;50.942;7.034;2023-10-08T14:10:03;19.40;95.60
6654;DHT22;3363;50.942;7.034;2023-10-08T14:12:33;19.40;95.40
6654;DHT22;3363;50.942;7.034;2023-10-08T14:15:00;19.30;95.30
6654;DHT22;3363;50.942;7.034;2023-10-08T14:17:33;19.40;95.70
6654;DHT22;3363;50.942;7.034;2023-10-08T14:20:09;19.40;95.80
6654;DHT22;3363;50.942;7.034;2023-10-08T14:22:39;19.50;93.40
6654;DHT22;3363;50.942;7.034;2023-10-08T14:25:07;19.60;93.00
6654;DHT22;3363;50.942;7.034;2023-10-08T14:27:37;19.70;91.30
6654;DHT22;3363;50.942;7.034;2023-10-08T14:30:06;19.60;93.70
6654;DHT22;3363;50.942;7.034;2023-10-08T14:32:34;19.50;92.00
6654;DHT22;3363;50.942;7.034;2023-10-08T14:35:00;19.40;94.70
6654;DHT22;3363;50.942;7.034;2023-10-08T14:37:44;19.40;95.00
6654;DHT22;3363;50.942;7.034;2023-10-08T14:40:29;19.40;95.80
6654;DHT22;3363;50.942;7.034;2023-10-08T14:43:13;19.50;94.10
6654;DHT22;3363;50.942;7.034;2023-10-08T14:45:41;19.60;95.90
6654;DHT22;3363;50.942;7.034;2023-10-08T14:48:13;19.60;95.20
6654;DHT22;3363;50.942;7.034;2023-10-08T14:50:40;19.70;96.40
6654;DHT22;3363;50.942;7.034;2023-10-08T14:53:07;19.60;97.10
6654;DHT22;3363;50.942;7.034;2023-10-08T14:55:35;19.50;96.40
6654;DHT22;3363;50.942;7.034;2023-10-08T14:58:04;19.40;99.90
6654;DHT22;3363;50.942;7.034;2023-10-08T15:00:33;19.30;99.90
6654;DHT22;3363;50.942;7.034;2023-10-08T15:03:01;19.40;99.90
6654;DHT22;3363;50.942;7.034;2023-10-08T15:05:30;19.30;99.90
6654;DHT22;3363;50.942;7.034;2023-10-08T15:07:57;19.20;99.90
6654;DHT22;3363;50.942;7.034;2023-10-08T15:10:24;19.10;99.90
6654;DHT22;3363;50.942;7.034;2023-10-08T15:12:52;19.00;99.90
6654;DHT22;3363;50.942;7.034;2023-10-08T15:15:18;19.00;99.90
6654;DHT22;3363;50.942;7.034;2023-10-08T15:17:48;19.00;99.90
6654;DHT22;3363;50.942;7.034;2023-10-08T15:20:15;19.00;99.90
6654;DHT22;3363;50.942;7.034;2023-10-08T15:22:47;19.00;99.90
6654;DHT22;3363;50.942;7.034;2023-10-08T15:25:14;19.20;99.90
6654;DHT22;3363;50.942;7.034;2023-10-08T15:27:42;19.20;99.90
6654;DHT22;3363;50.942;7.034;2023-10-08T15:30:11;19.10;99.90
6654;DHT22;3363;50.942;7.034;2023-10-08T15:32:38;19.20;99.90
6654;DHT22;3363;50.942;7.034;2023-10-08T15:35:05;19.10;99.90
6654;DHT22;3363;50.942;7.034;2023-10-08T15:37:34;19.10;99.90
6654;DHT22;3363;50.942;7.034;2023-10-08T15:40:02;19.20;99.90
6654;DHT22;3363;50.942;7.034;2023-10-08T15:42:31;19.20;99.90
6654;DHT22;3363;50.942;7.034;2023-10-08T15:44:58;19.30;99.90
6654;DHT22;3363;50.942;7.034;2023-10-08T15:47:25;19.20;99.90
6654;DHT22;3363;50.942;7.034;2023-10-08T15:49:52;19.10;99.90
6654;DHT22;3363;50.942;7.034;2023-10-08T15:52:19;19.10;99.90
6654;DHT22;3363;50.942;7.034;2023-10-08T15:54:48;19.10;99.90
6654;DHT22;3363;50.942;7.034;2023-10-08T15:57:16;19.10;99.90
6654;DHT22;3363;50.942;7.034;2023-10-08T15:59:43;19.10;99.90
6654;DHT22;3363;50.942;7.034;2023-10-08T16:02:09;19.20;99.90
6654;DHT22;3363;50.942;7.034;2023-10-08T16:04:37;19.10;99.90
6654;DHT22;3363;50.942;7.034;2023-10-08T16:07:03;19.10;99.90
6654;DHT22;3363;50.942;7.034;2023-10-08T16:09:30;19.10;99.90
6654;DHT22;3363;50.942;7.034;2023-10-08T16:11:57;19.10;99.90
6654;DHT22;3363;50.942;7.034;2023-10-08T16:14:26;19.00;99.90
6654;DHT22;3363;50.942;7.034;2023-10-08T16:16:52;18.90;99.90
6654;DHT22;3363;50.942;7.034;2023-10-08T16:19:19;18.80;99.90
6654;DHT22;3363;50.942;7.034;2023-10-08T16:21:46;18.80;99.90
6654;DHT22;3363;50.942;7.034;2023-10-08T16:24:13;18.90;99.90